Time;durP1;ratioP1;P1;durP2;ratioP2;P2;SDS_P1;SDS_P2;PMS_P1;PMS_P2;Temp;Humidity;BMP_temperature;BMP_pressure;BME280_temperature;BME280_humidity;BME280_pressure;Samples;Min_cycle;Max_cycle;Signal;HPM_P1;HPM_P2
2021/08/11 00:01:54;;;;;;;;;;;;;;;22.32;51.83;101137.84;5110959;28;19932;-58
2021/08/11 00:04:22;;;;;;;;;;;;;;;22.31;51.48;101137.00;5113115;27;19938;-58
2021/08/11 00:06:50;;;;;;;;;;;;;;;22.32;51.95;101140.53;5107171;27;19932;-56
2021/08/11 00:09:18;;;;;;;;;;;;;;;22.32;52.09;101135.16;5101176;27;20406;-58
2021/08/11 00:11:47;;;;;;;;;;;;;;;22.32;52.35;101132.47;5103747;27;19927;-57
2021/08/11 00:14:15;;;;;;;;;;;;;;;22.32;52.59;101133.31;5109829;27;20025;-57
2021/08/11 00:16:43;;;;;;;;;;;;;;;22.32;52.12;101133.31;5111415;27;19939;-58
2021/08/11 00:19:11;;;;;;;;;;;;;;;22.33;51.67;101134.19;5105827;27;19928;-59
2021/08/11 00:21:39;;;;;;;;;;;;;;;22.31;51.83;101123.53;5107881;27;20361;-59
2021/08/11 00:24:07;;;;;;;;;;;;;;;22.33;51.43;101132.34;5105618;27;19932;-58
2021/08/11 00:26:35;;;;;;;;;;;;;;;22.33;51.72;101129.66;5103716;28;20351;-58
2021/08/11 00:29:04;;;;;;;;;;;;;;;22.33;51.58;101136.88;5108059;28;19946;-59
2021/08/11 00:31:32;;;;;;;;;;;;;;;22.33;51.69;101132.34;5106780;27;19928;-56
2021/08/11 00:34:00;;;;;;;;;;;;;;;22.34;52.22;101133.22;5109372;28;19931;-58
2021/08/11 00:36:28;;;;;;;;;;;;;;;22.32;51.96;101133.31;5104331;27;19991;-58
2021/08/11 00:38:56;;;;;;;;;;;;;;;22.33;52.22;101132.34;5107156;27;19928;-59
2021/08/11 00:41:24;;;;;;;;;;;;;;;22.33;51.84;101137.72;5109445;27;19932;-57
2021/08/11 00:43:53;;;;;;;;;;;;;;;22.34;51.78;101138.63;5134888;27;19999;-58
2021/08/11 00:46:23;;;;;;;;;;;;;;;22.33;51.81;101142.28;5113675;27;19927;-58
2021/08/11 00:48:52;;;;;;;;;;;;;;;22.34;51.72;101144.84;5108028;27;19932;-58
2021/08/11 00:51:20;;;;;;;;;;;;;;;22.34;52.17;101144.84;5101977;27;19949;-58
2021/08/11 00:53:53;;;;;;;;;;;;;;;22.35;52.30;101145.69;5105337;27;19985;-58
2021/08/11 00:56:23;;;;;;;;;;;;;;;22.34;52.65;101139.47;5105566;27;19939;-58
2021/08/11 00:58:53;;;;;;;;;;;;;;;22.34;52.44;101144.84;5112880;28;20066;-57
2021/08/11 01:01:25;;;;;;;;;;;;;;;22.35;52.19;101140.31;5137998;27;19934;-58
2021/08/11 01:03:55;;;;;;;;;;;;;;;22.34;52.42;101142.16;5105819;27;19928;-58
2021/08/11 01:06:25;;;;;;;;;;;;;;;22.35;51.88;101141.22;5113967;27;19932;-55
2021/08/11 01:08:54;;;;;;;;;;;;;;;22.34;51.91;101139.47;5106949;28;20025;-58
2021/08/11 01:11:22;;;;;;;;;;;;;;;22.35;52.49;101138.53;5109346;28;19924;-58
2021/08/11 01:13:50;;;;;;;;;;;;;;;22.35;52.50;101137.63;5123353;27;19935;-58
2021/08/11 01:16:19;;;;;;;;;;;;;;;22.35;52.64;101134.94;5104563;27;20050;-56
2021/08/11 01:18:49;;;;;;;;;;;;;;;22.35;52.10;101134.94;5099521;28;19944;-58
2021/08/11 01:21:18;;;;;;;;;;;;;;;22.35;51.95;101137.63;5102229;28;19972;-57
2021/08/11 01:23:54;;;;;;;;;;;;;;;22.34;52.42;101141.31;5105742;28;19936;-58
2021/08/11 01:26:33;;;;;;;;;;;;;;;22.35;52.44;101129.53;5104224;28;19925;-58
2021/08/11 01:29:06;;;;;;;;;;;;;;;22.35;52.39;101134.94;5108403;28;20241;-57
2021/08/11 01:31:44;;;;;;;;;;;;;;;22.36;52.64;101131.28;5129750;27;20711;-56
2021/08/11 01:34:16;;;;;;;;;;;;;;;22.35;52.81;101135.84;5100633;28;19940;-57
2021/08/11 01:36:51;;;;;;;;;;;;;;;22.35;52.24;101135.84;5107945;28;19927;-54
2021/08/11 01:39:32;;;;;;;;;;;;;;;22.35;52.03;101140.31;5112058;28;19969;-59
2021/08/11 01:42:02;;;;;;;;;;;;;;;22.34;52.59;101136.78;5115946;28;19995;-58
2021/08/11 01:44:36;;;;;;;;;;;;;;;22.35;52.00;101134.94;5109678;27;19935;-58
2021/08/11 01:47:04;;;;;;;;;;;;;;;22.34;51.97;101136.78;5101141;27;19936;-58
2021/08/11 01:49:36;;;;;;;;;;;;;;;22.34;52.30;101150.25;5107703;27;19985;-58
2021/08/11 01:52:06;;;;;;;;;;;;;;;22.34;52.96;101144.84;5111498;27;20083;-59
2021/08/11 01:54:35;;;;;;;;;;;;;;;22.35;52.40;101148.41;5117173;27;19955;-58
2021/08/11 01:57:05;;;;;;;;;;;;;;;22.34;52.75;101141.31;5110770;28;19928;-58
2021/08/11 01:59:35;;;;;;;;;;;;;;;22.34;51.97;101146.69;5105276;27;19951;-58
2021/08/11 02:02:03;;;;;;;;;;;;;;;22.33;52.47;101143.13;5102534;27;19924;-58
2021/08/11 02:04:32;;;;;;;;;;;;;;;22.34;52.31;101144.00;5115743;27;19953;-58
2021/08/11 02:07:01;;;;;;;;;;;;;;;22.34;52.50;101146.69;5110448;28;19995;-58
2021/08/11 02:09:31;;;;;;;;;;;;;;;22.33;52.66;101147.66;5106681;27;19923;-56
2021/08/11 02:11:59;;;;;;;;;;;;;;;22.34;52.34;101154.78;5113954;27;19928;-57
2021/08/11 02:14:28;;;;;;;;;;;;;;;22.34;52.37;101154.78;5103692;27;19967;-55
2021/08/11 02:16:59;;;;;;;;;;;;;;;22.34;52.28;101144.00;5109483;27;20428;-55
2021/08/11 02:19:28;;;;;;;;;;;;;;;22.34;51.97;101146.69;5116260;27;19978;-54
2021/08/11 02:21:55;;;;;;;;;;;;;;;22.32;52.42;101145.94;5112462;27;19924;-55
2021/08/11 02:24:29;;;;;;;;;;;;;;;22.33;51.54;101145.81;5114206;27;19938;-54
2021/08/11 02:26:59;;;;;;;;;;;;;;;22.34;51.82;101147.53;5137014;27;19992;-56
2021/08/11 02:29:36;;;;;;;;;;;;;;;22.35;52.32;101156.47;5102391;27;19930;-55
2021/08/11 02:32:09;;;;;;;;;;;;;;;22.35;52.90;101152.00;5125005;27;19943;-55
2021/08/11 02:34:41;;;;;;;;;;;;;;;22.35;52.09;101148.41;5135237;27;19931;-52
2021/08/11 02:37:11;;;;;;;;;;;;;;;22.34;51.78;101149.41;5112280;27;19928;-53
2021/08/11 02:39:46;;;;;;;;;;;;;;;22.34;52.46;101155.63;5120433;27;19957;-55
2021/08/11 02:42:32;;;;;;;;;;;;;;;22.34;51.90;101155.63;5113625;27;20751;-52
2021/08/11 02:45:04;;;;;;;;;;;;;;;22.34;51.86;101152.09;5133315;27;19924;-54
2021/08/11 02:47:36;;;;;;;;;;;;;;;22.33;52.12;101148.50;5107621;27;19927;-53
2021/08/11 02:50:04;;;;;;;;;;;;;;;22.33;52.26;101156.59;5108256;27;19924;-55
2021/08/11 02:52:36;;;;;;;;;;;;;;;22.34;52.12;101161.03;5106714;27;19924;-53
2021/08/11 02:55:07;;;;;;;;;;;;;;;22.34;51.53;101160.19;5117548;27;19958;-53
2021/08/11 02:57:37;;;;;;;;;;;;;;;22.33;52.20;101156.59;5132373;27;20412;-53
2021/08/11 03:00:05;;;;;;;;;;;;;;;22.33;51.95;101159.28;5113458;27;19927;-54
2021/08/11 03:02:33;;;;;;;;;;;;;;;22.33;52.26;101155.75;5109005;27;19973;-55
2021/08/11 03:05:03;;;;;;;;;;;;;;;22.32;51.81;101149.47;5112560;27;19969;-55
2021/08/11 03:07:31;;;;;;;;;;;;;;;22.32;51.46;101154.88;5111891;27;19927;-55
2021/08/11 03:10:00;;;;;;;;;;;;;;;22.32;52.36;101157.56;5107585;28;20783;-54
2021/08/11 03:12:30;;;;;;;;;;;;;;;22.33;51.79;101156.59;5105934;27;19924;-55
2021/08/11 03:14:59;;;;;;;;;;;;;;;22.32;52.12;101152.16;5105638;27;19930;-50
2021/08/11 03:17:27;;;;;;;;;;;;;;;22.32;51.10;101162.94;5110445;27;19947;-55
2021/08/11 03:19:58;;;;;;;;;;;;;;;22.32;51.03;101152.16;5106142;27;19939;-56
2021/08/11 03:22:26;;;;;;;;;;;;;;;22.32;51.12;101159.41;5108523;27;19943;-52
2021/08/11 03:24:54;;;;;;;;;;;;;;;22.32;51.60;101145.94;5103741;27;19923;-53
2021/08/11 03:27:24;;;;;;;;;;;;;;;22.31;51.47;101161.25;5104136;27;19930;-53
2021/08/11 03:29:53;;;;;;;;;;;;;;;22.31;51.51;101158.56;5107134;27;19932;-53
2021/08/11 03:32:21;;;;;;;;;;;;;;;22.31;51.20;101150.47;5136927;27;19932;-58
2021/08/11 03:34:49;;;;;;;;;;;;;;;22.32;51.23;101156.72;5122710;27;19943;-58
2021/08/11 03:37:17;;;;;;;;;;;;;;;22.32;51.35;101154.88;5106555;27;19931;-57
2021/08/11 03:39:50;;;;;;;;;;;;;;;22.32;51.44;101162.94;5099986;27;19935;-57
2021/08/11 03:42:19;;;;;;;;;;;;;;;22.32;51.30;101167.50;5139980;27;19924;-54
2021/08/11 03:44:48;;;;;;;;;;;;;;;22.32;51.62;101162.94;5107061;27;20030;-58
2021/08/11 03:47:19;;;;;;;;;;;;;;;22.32;51.87;101162.94;5104714;27;19985;-58
2021/08/11 03:49:50;;;;;;;;;;;;;;;22.33;51.23;101171.91;5108324;27;19934;-58
2021/08/11 03:52:19;;;;;;;;;;;;;;;22.33;51.66;101166.53;5103042;27;19924;-57
2021/08/11 03:54:48;;;;;;;;;;;;;;;22.32;51.40;101164.78;5099395;27;20001;-57
2021/08/11 03:57:16;;;;;;;;;;;;;;;22.33;51.35;101174.59;5111529;27;20013;-57
2021/08/11 03:59:44;;;;;;;;;;;;;;;22.31;51.25;101169.34;5104461;27;19932;-57
2021/08/11 04:02:12;;;;;;;;;;;;;;;22.31;51.43;101174.72;5105617;27;19935;-57
2021/08/11 04:04:41;;;;;;;;;;;;;;;22.32;51.58;101183.66;5106616;27;19924;-59
2021/08/11 04:07:09;;;;;;;;;;;;;;;22.32;51.70;101181.81;5104792;27;19923;-58
2021/08/11 04:09:37;;;;;;;;;;;;;;;22.32;51.91;101189.91;5107490;27;19998;-58
2021/08/11 04:12:05;;;;;;;;;;;;;;;22.31;51.36;101185.50;5107716;27;20314;-57
2021/08/11 04:14:33;;;;;;;;;;;;;;;22.32;51.95;101191.75;5105137;27;20401;-58
2021/08/11 04:17:01;;;;;;;;;;;;;;;22.32;51.82;101197.97;5103910;27;20004;-58
2021/08/11 04:19:29;;;;;;;;;;;;;;;22.31;51.36;101190.00;5101696;27;19954;-58
2021/08/11 04:21:58;;;;;;;;;;;;;;;22.31;51.42;101204.38;5102879;27;19927;-58
2021/08/11 04:24:27;;;;;;;;;;;;;;;22.32;51.57;101202.53;5110661;27;19930;-58
2021/08/11 04:26:55;;;;;;;;;;;;;;;22.31;50.94;101201.69;5103331;27;19935;-65
2021/08/11 04:29:23;;;;;;;;;;;;;;;22.32;51.22;101203.38;5108447;28;20386;-63
2021/08/11 04:31:51;;;;;;;;;;;;;;;22.32;51.52;101206.06;5111852;27;19928;-62
2021/08/11 04:34:19;;;;;;;;;;;;;;;22.33;51.54;101199.72;5102227;28;19995;-60
2021/08/11 04:36:47;;;;;;;;;;;;;;;22.34;52.07;101200.59;5107260;27;19931;-63
2021/08/11 04:39:16;;;;;;;;;;;;;;;22.34;51.78;101212.22;5108797;27;19995;-60
2021/08/11 04:41:45;;;;;;;;;;;;;;;22.35;51.86;101208.59;5105332;27;21533;-62
2021/08/11 04:44:13;;;;;;;;;;;;;;;22.36;52.23;101201.38;5103972;28;19924;-57
2021/08/11 04:46:41;;;;;;;;;;;;;;;22.37;52.09;101217.41;5104657;27;19938;-62
2021/08/11 04:49:09;;;;;;;;;;;;;;;22.39;52.62;101217.31;5100444;28;19932;-61
2021/08/11 04:51:37;;;;;;;;;;;;;;;22.40;52.54;101215.50;5104805;27;19924;-60
2021/08/11 04:54:05;;;;;;;;;;;;;;;22.42;52.72;101216.22;5114258;27;19989;-61
2021/08/11 04:56:35;;;;;;;;;;;;;;;22.42;53.08;101216.22;5108191;28;20023;-60
2021/08/11 04:59:03;;;;;;;;;;;;;;;22.43;53.13;101224.25;5104261;27;20426;-61
2021/08/11 05:01:31;;;;;;;;;;;;;;;22.44;53.35;101222.41;5102953;28;19924;-61
2021/08/11 05:03:59;;;;;;;;;;;;;;;22.44;53.02;101231.34;5102678;27;20023;-59
2021/08/11 05:06:27;;;;;;;;;;;;;;;22.45;53.49;101224.13;5106969;27;19938;-61
2021/08/11 05:08:56;;;;;;;;;;;;;;;22.46;53.05;101221.31;5108927;28;19927;-60
2021/08/11 05:11:25;;;;;;;;;;;;;;;22.47;53.20;101232.94;5103008;28;19924;-61
2021/08/11 05:13:54;;;;;;;;;;;;;;;22.47;53.15;101236.53;5109253;28;19927;-60
2021/08/11 05:16:22;;;;;;;;;;;;;;;22.48;53.45;101231.97;5098071;28;20311;-63
2021/08/11 05:18:50;;;;;;;;;;;;;;;22.50;52.42;101230.91;5106814;28;19943;-61
2021/08/11 05:21:18;;;;;;;;;;;;;;;22.52;52.55;101237.06;5107049;28;19950;-63
2021/08/11 05:23:46;;;;;;;;;;;;;;;22.58;52.64;101232.22;5113566;28;19931;-65
2021/08/11 05:26:14;;;;;;;;;;;;;;;22.63;52.09;101235.44;5104573;28;19924;-56
2021/08/11 05:28:41;;;;;;;;;;;;;;;22.66;52.95;101241.47;5100663;28;19969;-66
2021/08/11 05:31:11;;;;;;;;;;;;;;;22.70;53.19;101240.28;5098867;28;19939;-66
2021/08/11 05:33:39;;;;;;;;;;;;;;;22.74;53.95;101240.94;5105522;28;19980;-63
2021/08/11 05:36:07;;;;;;;;;;;;;;;22.77;54.67;101243.44;5106397;28;20284;-63
2021/08/11 05:38:36;;;;;;;;;;;;;;;22.80;53.88;101245.00;5109760;28;19953;-62
2021/08/11 05:41:03;;;;;;;;;;;;;;;22.82;53.60;101248.47;5108922;28;19935;-62
2021/08/11 05:43:32;;;;;;;;;;;;;;;22.83;53.34;101250.22;5102381;28;19928;-67
2021/08/11 05:46:01;;;;;;;;;;;;;;;22.84;53.21;101255.47;5102058;28;20023;-68
2021/08/11 05:48:30;;;;;;;;;;;;;;;21.21;58.01;101253.84;5109298;28;19923;-66
2021/08/11 05:50:59;;;;;;;;;;;;;;;20.63;56.33;101269.09;5110829;28;19924;-63
2021/08/11 05:53:27;;;;;;;;;;;;;;;20.25;55.30;101270.50;5104914;28;19931;-66
2021/08/11 05:55:55;;;;;;;;;;;;;;;20.11;54.33;101262.41;5105198;28;19931;-66
2021/08/11 05:58:23;;;;;;;;;;;;;;;20.83;51.62;101265.22;5103329;28;19927;-62
2021/08/11 06:00:51;;;;;;;;;;;;;;;20.85;53.01;101274.91;5101656;28;19928;-61
2021/08/11 06:03:19;;;;;;;;;;;;;;;20.84;53.18;101277.69;5107151;28;20031;-60
2021/08/11 06:05:56;;;;;;;;;;;;;;;20.62;54.66;101281.69;5107694;28;20730;-63
2021/08/11 06:08:24;;;;;;;;;;;;;;;20.91;53.65;101276.34;5106286;28;20494;-59
2021/08/11 06:10:52;;;;;;;;;;;;;;;20.82;53.89;101275.09;5106802;28;19932;-59
2021/08/11 06:13:20;;;;;;;;;;;;;;;21.06;53.33;101275.41;5093700;28;19943;-58
2021/08/11 06:15:48;;;;;;;;;;;;;;;20.64;54.82;101281.59;5107201;28;19953;-58
2021/08/11 06:18:16;;;;;;;;;;;;;;;20.42;54.88;101299.03;5103695;28;19924;-58
2021/08/11 06:20:47;;;;;;;;;;;;;;;20.31;55.27;101293.44;5101830;28;19932;-61
2021/08/11 06:23:16;;;;;;;;;;;;;;;20.22;55.58;101295.72;5105796;28;20005;-60
2021/08/11 06:25:44;;;;;;;;;;;;;;;20.13;55.82;101295.38;5100289;28;19935;-60
2021/08/11 06:28:12;;;;;;;;;;;;;;;20.63;52.93;101293.28;5101573;28;20321;-60
2021/08/11 06:30:41;;;;;;;;;;;;;;;20.77;52.22;101292.47;5103007;27;20444;-60
2021/08/11 06:33:09;;;;;;;;;;;;;;;20.76;52.15;101298.81;5108389;28;20367;-59
2021/08/11 06:35:37;;;;;;;;;;;;;;;20.78;52.30;101295.06;5109265;28;20028;-60
2021/08/11 06:38:05;;;;;;;;;;;;;;;20.79;51.62;101287.84;5102921;28;19938;-59
2021/08/11 06:40:37;;;;;;;;;;;;;;;20.76;51.35;101296.97;5104241;28;19934;-59
2021/08/11 06:43:05;;;;;;;;;;;;;;;20.67;51.53;101298.41;5104978;28;19932;-59
2021/08/11 06:45:36;;;;;;;;;;;;;;;20.68;50.65;101301.94;5116465;28;19928;-59
2021/08/11 06:48:06;;;;;;;;;;;;;;;20.77;49.82;101300.53;5135565;27;19924;-58
2021/08/11 06:50:34;;;;;;;;;;;;;;;20.74;49.72;101306.97;5105856;28;19935;-58
2021/08/11 06:53:03;;;;;;;;;;;;;;;20.76;51.20;101298.81;5105287;28;19928;-58
2021/08/11 06:55:31;;;;;;;;;;;;;;;20.96;51.68;101303.81;5111462;28;19954;-59
2021/08/11 06:58:00;;;;;;;;;;;;;;;21.01;50.97;101301.72;5110428;28;20602;-58
2021/08/11 07:00:28;;;;;;;;;;;;;;;20.87;50.41;101307.09;5113677;28;19927;-59
2021/08/11 07:02:56;;;;;;;;;;;;;;;20.80;50.39;101308.41;5109983;28;19963;-59
2021/08/11 07:05:25;;;;;;;;;;;;;;;20.78;50.28;101300.44;5108814;28;19939;-60
2021/08/11 07:07:53;;;;;;;;;;;;;;;20.80;50.04;101309.28;5101040;28;19936;-60
2021/08/11 07:10:21;;;;;;;;;;;;;;;20.77;49.64;101303.25;5106120;28;19953;-59
2021/08/11 07:12:49;;;;;;;;;;;;;;;20.75;49.43;101306.03;5105402;28;19928;-59
2021/08/11 07:15:20;;;;;;;;;;;;;;;20.73;49.45;101311.47;5111284;28;19934;-59
2021/08/11 07:17:51;;;;;;;;;;;;;;;20.70;48.85;101305.44;5108353;28;19998;-59
2021/08/11 07:20:19;;;;;;;;;;;;;;;20.63;48.71;101304.03;5104705;28;19987;-59
2021/08/11 07:22:48;;;;;;;;;;;;;;;20.63;48.53;101306.72;5099451;28;19924;-59
2021/08/11 07:25:17;;;;;;;;;;;;;;;20.57;48.26;101302.59;5107679;28;19923;-59
2021/08/11 07:27:45;;;;;;;;;;;;;;;20.53;47.95;101309.97;5106590;28;19932;-59
2021/08/11 07:30:13;;;;;;;;;;;;;;;20.70;49.75;101314.34;5110911;27;19967;-58
2021/08/11 07:32:43;;;;;;;;;;;;;;;20.69;48.47;101317.13;5102739;28;19970;-59
2021/08/11 07:35:12;;;;;;;;;;;;;;;20.63;48.87;101323.75;5103186;28;19946;-60
2021/08/11 07:37:47;;;;;;;;;;;;;;;20.75;50.31;101326.66;5099481;28;20795;-59
2021/08/11 07:40:16;;;;;;;;;;;;;;;20.73;48.98;101327.59;5103731;28;19924;-59
2021/08/11 07:42:44;;;;;;;;;;;;;;;20.67;49.00;101325.28;5112346;28;19928;-59
2021/08/11 07:45:13;;;;;;;;;;;;;;;20.61;48.67;101325.63;5110085;28;19924;-59
2021/08/11 07:47:41;;;;;;;;;;;;;;;20.56;48.82;101335.81;5098820;28;19928;-60
2021/08/11 07:50:12;;;;;;;;;;;;;;;20.54;48.61;101332.34;5099746;28;19971;-60
2021/08/11 07:52:44;;;;;;;;;;;;;;;20.52;48.42;101332.44;5111644;28;19934;-60
2021/08/11 07:55:13;;;;;;;;;;;;;;;20.54;48.17;101335.03;5112679;28;19997;-59
2021/08/11 07:57:43;;;;;;;;;;;;;;;20.64;49.34;101338.88;5112038;28;20231;-60
2021/08/11 08:00:13;;;;;;;;;;;;;;;20.70;48.43;101341.25;5110586;28;19989;-58
2021/08/11 08:02:44;;;;;;;;;;;;;;;20.61;47.93;101339.06;5111083;27;20425;-59
2021/08/11 08:05:14;;;;;;;;;;;;;;;20.61;48.05;101339.06;5104639;28;19924;-59
2021/08/11 08:07:43;;;;;;;;;;;;;;;20.55;47.92;101340.31;5103595;28;19984;-59
2021/08/11 08:10:12;;;;;;;;;;;;;;;20.40;45.53;101341.22;5109593;28;19954;-60
2021/08/11 08:12:42;;;;;;;;;;;;;;;20.26;45.03;101338.50;5105599;28;20045;-60
2021/08/11 08:15:11;;;;;;;;;;;;;;;20.27;45.98;101346.47;5113942;28;19934;-60
2021/08/11 08:17:39;;;;;;;;;;;;;;;20.34;47.07;101344.28;5099887;28;20080;-60
2021/08/11 08:20:17;;;;;;;;;;;;;;;20.41;46.77;101340.28;5108672;28;19985;-59
2021/08/11 08:22:46;;;;;;;;;;;;;;;20.57;48.20;101346.44;5107331;28;20364;-60
2021/08/11 08:25:19;;;;;;;;;;;;;;;20.71;47.36;101336.72;5105023;28;19928;-60
2021/08/11 08:27:48;;;;;;;;;;;;;;;20.59;46.94;101342.81;5102054;28;19984;-60
2021/08/11 08:30:16;;;;;;;;;;;;;;;20.55;47.12;101339.44;5098119;28;20015;-60
2021/08/11 08:32:44;;;;;;;;;;;;;;;20.49;47.32;101346.06;5107849;27;20003;-59
2021/08/11 08:35:13;;;;;;;;;;;;;;;20.40;47.44;101342.09;5109027;28;19943;-60
2021/08/11 08:37:42;;;;;;;;;;;;;;;20.42;47.19;101343.81;5111119;28;19935;-59
2021/08/11 08:40:12;;;;;;;;;;;;;;;20.38;46.93;101344.00;5112475;28;19923;-59
2021/08/11 08:42:41;;;;;;;;;;;;;;;20.31;46.98;101348.00;5107042;28;19928;-59
2021/08/11 08:45:09;;;;;;;;;;;;;;;20.41;48.64;101348.34;5100547;28;19924;-59
2021/08/11 08:47:38;;;;;;;;;;;;;;;20.62;48.69;101340.81;5095656;28;19928;-60
2021/08/11 08:50:07;;;;;;;;;;;;;;;20.65;48.27;101356.75;5112692;28;20029;-59
2021/08/11 08:52:37;;;;;;;;;;;;;;;20.48;47.57;101348.84;5099191;28;19928;-59
2021/08/11 08:55:07;;;;;;;;;;;;;;;20.43;47.58;101354.47;5108167;28;20257;-59
2021/08/11 08:57:35;;;;;;;;;;;;;;;20.25;47.90;101361.81;5102420;28;19924;-59
2021/08/11 09:00:04;;;;;;;;;;;;;;;20.27;45.59;101356.34;5098663;28;19928;-59
2021/08/11 09:02:33;;;;;;;;;;;;;;;20.11;45.26;101354.56;5100615;28;19932;-59
2021/08/11 09:05:01;;;;;;;;;;;;;;;20.05;44.65;101360.28;5104598;28;19946;-59
2021/08/11 09:07:29;;;;;;;;;;;;;;;19.89;44.67;101352.22;5108620;28;19928;-59
2021/08/11 09:09:57;;;;;;;;;;;;;;;20.22;46.71;101365.56;5105178;28;19991;-59
2021/08/11 09:12:26;;;;;;;;;;;;;;;20.28;45.93;101367.00;5107861;28;20356;-59
2021/08/11 09:14:54;;;;;;;;;;;;;;;20.17;46.33;101370.31;5100093;28;19928;-59
2021/08/11 09:17:33;;;;;;;;;;;;;;;20.34;47.62;101368.44;5107204;28;20039;-59
2021/08/11 09:20:01;;;;;;;;;;;;;;;20.50;47.94;101374.66;5106241;28;19924;-58
2021/08/11 09:22:44;;;;;;;;;;;;;;;20.45;47.30;101365.13;5104256;28;20754;-59
2021/08/11 09:25:12;;;;;;;;;;;;;;;20.34;47.12;101369.34;5110547;28;19962;-60
2021/08/11 09:27:43;;;;;;;;;;;;;;;20.49;46.72;101366.69;5095645;28;19928;-59
2021/08/11 09:30:12;;;;;;;;;;;;;;;20.63;47.82;101371.22;5109345;28;20019;-56
2021/08/11 09:32:47;;;;;;;;;;;;;;;20.63;46.74;101372.13;5113704;28;19954;-59
2021/08/11 09:35:18;;;;;;;;;;;;;;;20.49;46.78;101372.94;5109789;28;19980;-59
2021/08/11 09:37:48;;;;;;;;;;;;;;;20.58;46.49;101374.22;5115182;28;19931;-59
2021/08/11 09:40:17;;;;;;;;;;;;;;;20.54;46.48;101370.84;5101859;28;19929;-59
2021/08/11 09:42:47;;;;;;;;;;;;;;;20.50;46.68;101373.78;5106722;28;19939;-57
2021/08/11 09:45:16;;;;;;;;;;;;;;;20.46;46.40;101382.97;5107261;28;19938;-59
2021/08/11 09:47:54;;;;;;;;;;;;;;;20.60;47.60;101380.34;5110329;28;19973;-59
2021/08/11 09:50:36;;;;;;;;;;;;;;;20.75;48.83;101384.00;5117546;28;19938;-59
2021/08/11 09:53:05;;;;;;;;;;;;;;;20.83;47.21;101380.84;5110211;28;19935;-59
2021/08/11 09:55:48;;;;;;;;;;;;;;;20.38;44.89;101376.25;5098925;28;19928;-59
2021/08/11 09:58:20;;;;;;;;;;;;;;;20.22;45.18;101380.78;5111463;28;19927;-59
2021/08/11 10:00:48;;;;;;;;;;;;;;;20.15;44.45;101379.44;5111770;28;19950;-59
2021/08/11 10:03:16;;;;;;;;;;;;;;;20.12;45.84;101387.63;5103373;28;19963;-59
2021/08/11 10:05:45;;;;;;;;;;;;;;;20.29;45.93;101384.84;5114820;28;19951;-59
2021/08/11 10:08:13;;;;;;;;;;;;;;;20.47;47.10;101380.19;5114156;28;19981;-59
2021/08/11 10:10:46;;;;;;;;;;;;;;;20.55;47.41;101388.69;5113534;28;19955;-59
2021/08/11 10:13:16;;;;;;;;;;;;;;;20.49;46.39;101378.31;5108699;28;19965;-59
2021/08/11 10:15:46;;;;;;;;;;;;;;;20.35;46.55;101378.25;5113256;28;19943;-59
2021/08/11 10:18:18;;;;;;;;;;;;;;;20.55;47.62;101387.81;5114523;28;20061;-59
2021/08/11 10:20:47;;;;;;;;;;;;;;;20.73;47.58;101381.38;5108772;28;19928;-59
2021/08/11 10:23:16;;;;;;;;;;;;;;;20.83;47.64;101383.53;5107640;28;19928;-59
2021/08/11 10:25:45;;;;;;;;;;;;;;;20.77;46.32;101384.75;5114897;28;20409;-60
2021/08/11 10:28:13;;;;;;;;;;;;;;;20.82;47.22;101385.34;5112368;28;20382;-60
2021/08/11 10:30:46;;;;;;;;;;;;;;;20.59;46.38;101392.03;5111432;28;19959;-59
2021/08/11 10:33:15;;;;;;;;;;;;;;;20.21;44.92;101396.03;5111732;28;19932;-59
2021/08/11 10:35:44;;;;;;;;;;;;;;;19.96;44.85;101399.28;5103694;28;19932;-59
2021/08/11 10:38:13;;;;;;;;;;;;;;;20.03;44.86;101400.66;5108353;28;19928;-59
2021/08/11 10:40:42;;;;;;;;;;;;;;;20.16;46.17;101398.13;5106819;28;19938;-59
2021/08/11 10:43:13;;;;;;;;;;;;;;;20.42;45.53;101398.44;5103639;28;19928;-59
2021/08/11 10:45:43;;;;;;;;;;;;;;;20.48;45.71;101405.28;5113607;28;19989;-59
2021/08/11 10:48:17;;;;;;;;;;;;;;;20.46;45.79;101400.00;5108113;28;19928;-59
2021/08/11 10:50:46;;;;;;;;;;;;;;;20.77;47.79;101400.88;5109808;28;19950;-60
2021/08/11 10:53:14;;;;;;;;;;;;;;;20.73;48.43;101399.31;5113850;28;20033;-60
2021/08/11 10:55:46;;;;;;;;;;;;;;;20.71;47.90;101401.22;5118657;28;19995;-60
2021/08/11 10:58:29;;;;;;;;;;;;;;;20.57;46.79;101400.19;5112310;28;19934;-60
2021/08/11 11:00:57;;;;;;;;;;;;;;;20.50;46.99;101409.59;5117342;27;20030;-59
2021/08/11 11:03:44;;;;;;;;;;;;;;;20.36;47.07;101413.09;5101796;28;19939;-59
2021/08/11 11:06:13;;;;;;;;;;;;;;;20.39;46.79;101412.03;5099978;28;19924;-59
2021/08/11 11:08:41;;;;;;;;;;;;;;;20.29;44.71;101418.91;5112691;28;19977;-59
2021/08/11 11:11:37;;;;;;;;;;;;;;;20.28;44.23;101418.03;5110545;28;19935;-58
2021/08/11 11:14:29;;;;;;;;;;;;;;;20.42;45.65;101411.88;5108153;28;19962;-59
2021/08/11 11:17:05;;;;;;;;;;;;;;;20.18;43.71;101406.94;5100445;28;20337;-59
2021/08/11 11:19:55;;;;;;;;;;;;;;;20.20;45.26;101402.38;5106605;28;19939;-58
2021/08/11 11:22:35;;;;;;;;;;;;;;;20.44;45.14;101401.88;5116470;28;19928;-60
2021/08/11 11:25:04;;;;;;;;;;;;;;;20.67;46.33;101407.72;5109155;28;19934;-59
2021/08/11 11:27:58;;;;;;;;;;;;;;;20.79;46.41;101400.78;5106346;28;19932;-59
2021/08/11 11:30:38;;;;;;;;;;;;;;;20.83;46.70;101405.88;5103101;28;20411;-59
2021/08/11 11:33:32;;;;;;;;;;;;;;;20.92;46.98;101406.28;5114243;28;19946;-58
2021/08/11 11:36:19;;;;;;;;;;;;;;;20.88;46.13;101410.97;5108659;28;19928;-59
2021/08/11 11:39:08;;;;;;;;;;;;;;;20.82;45.93;101412.22;5108304;28;19973;-59
2021/08/11 11:41:37;;;;;;;;;;;;;;;20.84;45.88;101409.44;5120361;27;19928;-59
2021/08/11 11:44:39;;;;;;;;;;;;;;;20.75;46.20;101410.88;5115070;28;20008;-60
2021/08/11 11:47:16;;;;;;;;;;;;;;;20.85;46.88;101414.72;5041044;28;19929;-59
2021/08/11 11:49:45;;;;;;;;;;;;;;;20.97;47.29;101420.31;5047447;28;19932;-59
2021/08/11 11:52:13;;;;;;;;;;;;;;;20.98;46.10;101422.91;5083530;28;19924;-58
2021/08/11 11:54:46;;;;;;;;;;;;;;;21.01;46.94;101416.47;5105929;28;20024;-59
2021/08/11 11:57:15;;;;;;;;;;;;;;;20.82;45.97;101411.38;5105930;28;20410;-59
2021/08/11 11:59:44;;;;;;;;;;;;;;;20.73;44.29;101418.16;5103530;28;19931;-59
2021/08/11 12:02:20;;;;;;;;;;;;;;;20.38;44.12;101413.88;5100955;28;20060;-58
2021/08/11 12:04:58;;;;;;;;;;;;;;;20.48;45.91;101406.13;5112203;28;19928;-59
2021/08/11 12:07:27;;;;;;;;;;;;;;;20.49;43.81;101409.69;5112650;27;20443;-58
2021/08/11 12:09:56;;;;;;;;;;;;;;;20.64;45.08;101411.44;5109949;28;20005;-59
2021/08/11 12:12:24;;;;;;;;;;;;;;;20.65;45.26;101415.88;5101101;28;19979;-59
2021/08/11 12:14:52;;;;;;;;;;;;;;;20.48;45.76;101418.72;5101683;28;19981;-59
2021/08/11 12:17:28;;;;;;;;;;;;;;;20.70;45.45;101418.34;5113006;28;19945;-59
2021/08/11 12:19:56;;;;;;;;;;;;;;;20.84;45.83;101421.06;5104819;28;20053;-58
2021/08/11 12:22:31;;;;;;;;;;;;;;;20.95;47.20;101420.41;5107919;28;19960;-59
2021/08/11 12:25:00;;;;;;;;;;;;;;;21.03;47.85;101415.44;5109720;28;19928;-59
2021/08/11 12:27:29;;;;;;;;;;;;;;;21.05;46.93;101415.31;5100287;28;19953;-59
2021/08/11 12:30:16;;;;;;;;;;;;;;;21.02;47.29;101418.22;5107634;28;19928;-59
2021/08/11 12:32:44;;;;;;;;;;;;;;;21.05;46.12;101421.59;5107762;28;19955;-58
2021/08/11 12:35:13;;;;;;;;;;;;;;;21.01;45.99;101417.34;5113403;28;20416;-58
2021/08/11 12:37:45;;;;;;;;;;;;;;;20.92;46.06;101417.03;5107899;28;19924;-59
2021/08/11 12:40:28;;;;;;;;;;;;;;;20.85;44.56;101405.78;5107919;28;19959;-57
2021/08/11 12:42:58;;;;;;;;;;;;;;;20.49;44.09;101415.94;5103391;28;20026;-58
2021/08/11 12:45:26;;;;;;;;;;;;;;;20.29;44.58;101413.53;5109756;28;19932;-59
2021/08/11 12:47:54;;;;;;;;;;;;;;;20.52;45.88;101417.56;5108946;28;20050;-58
2021/08/11 12:50:23;;;;;;;;;;;;;;;20.47;43.63;101411.59;5103765;28;19924;-59
2021/08/11 12:52:55;;;;;;;;;;;;;;;20.36;45.63;101407.72;5115509;28;19955;-58